Stations météo

réclame
Mon MeteoGroup
Zinnwald-Georgenfeld, Allemagne (10582): Température de l'air & dewpoint: 08.08.2018 19:00:00 - 14.08.2018 19:00:00 (CEST)Zinnwald-Georgenfeld, Allemagne (10582): Température de l'air 5cm & Température de l'air -5cm: 08.08.2018 19:00:00 - 14.08.2018 19:00:00 (CEST)Zinnwald-Georgenfeld, Allemagne (10582): Température de l'air -20cm & Température de l'air -100cm: 08.08.2018 19:00:00 - 14.08.2018 19:00:00 (CEST)Zinnwald-Georgenfeld, Allemagne (10582): Vitesse du vent & gusts: 08.08.2018 19:00:00 - 14.08.2018 19:00:00 (CEST)Zinnwald-Georgenfeld, Allemagne (10582): Direction du vent: 08.08.2018 19:00:00 - 14.08.2018 19:00:00 (CEST)Zinnwald-Georgenfeld, Allemagne (10582): visibility: 08.08.2018 19:00:00 - 14.08.2018 19:00:00 (CEST)Zinnwald-Georgenfeld, Allemagne (10582): Ensoleillement: 08.08.2018 19:00:00 - 14.08.2018 19:00:00 (CEST)Zinnwald-Georgenfeld, Allemagne (10582): Quantités de précipitations: 08.08.2018 19:00:00 - 14.08.2018 19:00:00 (CEST)
Date & Time tt [°C] td [°C] tt 5cm [°C] tt -5cm [°C] tt -20cm [°C] tt -100cm [°C] ff [km/h] ff [knt] fx [km/h] fx [knt] dd vv [km] sd [min] rr [mm]
14.08.2018 19:00:00 17,7 10,0 17,1 20,0 20,0 16,7 22 12 37 20 WNW 70 54 0,0
14.08.2018 18:00:00 19,1 9,6 21,5 21,3 20,0 16,7 18 10 33 18 WNW 52 41 0,0
14.08.2018 17:00:00 19,1 9,9 20,6 22,8 19,7 16,7 20 11 34 19 W 55 43 0,0
14.08.2018 16:00:00 19,8 10,2 22,0 24,3 19,3 16,7 13 7 38 20 NW 59 47 0,0
14.08.2018 15:00:00 18,8 10,3 21,4 22,2 19,0 16,7 19 11 33 18 W 70 20 0,0
14.08.2018 14:00:00 17,5 9,8 18,4 20,4 18,8 16,7 14 8 32 17 W 70 8 0,0
14.08.2018 13:00:00 17,2 9,2 18,1 21,1 18,5 16,7 19 10 34 18 W 70 14 0,0
14.08.2018 12:00:00 16,7 10,3 17,6 21,8 18,0 16,7 14 8 29 16 W 70 28 0,0
14.08.2018 11:00:00 16,6 11,4 18,9 22,8 17,5 16,7 19 11 33 18 WSW 27 40 0,0
14.08.2018 10:00:00 16,1 12,0 17,7 20,8 17,2 16,7 18 10 28 15 WSW 27 55 0,0
14.08.2018 09:00:00 14,3 12,5 15,2 17,3 17,1 16,7 11 6 29 16 W 47 14 0,0
14.08.2018 08:00:00 13,7 12,1 13,7 15,6 17,3 16,7 13 7 26 14 W 43 52 0,0
14.08.2018 07:00:00 12,7 11,5 12,0 13,7 17,7 16,7 11 6 26 14 WSW 31 12 0,0
14.08.2018 06:00:00 13,0 11,7 11,7 14,0 18,0 16,7 16 8 28 15 W 29 0 0,0
14.08.2018 05:00:00 13,8 12,5 13,0 15,2 18,3 16,7 18 10 26 14 WSW 29 0 0,0
14.08.2018 04:00:00 13,7 12,9 13,3 15,5 18,7 16,7 18 10 24 13 SSW 10 0 0,8
14.08.2018 03:00:00 14,2 13,0 13,6 15,8 19,1 16,7 19 10 29 16 WSW 3,8 0 1,9
14.08.2018 02:00:00 13,8 13,2 13,6 16,0 19,5 16,7 18 10 24 13 S 2,8 0 0,8
14.08.2018 01:00:00 13,8 13,3 13,7 16,3 19,9 16,7 21 12 30 16 S 0,1 0 1,1
14.08.2018 00:00:00 14,3 12,8 13,6 16,8 20,4 16,7 15 8 27 15 S 26 0 1,0
13.08.2018 23:00:00 15,2 12,8 14,0 17,6 20,8 16,7 22 12 30 16 SW 11 0 0,4
13.08.2018 22:00:00 17,3 11,6 16,2 18,5 21,3 16,7 10 5 16 9 WNW 50 0 0,0
13.08.2018 21:00:00 18,5 10,3 17,4 19,0 21,9 16,7 13 7 19 10 NW 70 0 0,0
13.08.2018 20:00:00 18,7 10,7 17,5 20,0 22,5 16,7 10 6 19 11 NNW 61 0 0,0
13.08.2018 19:00:00 18,3 11,8 16,6 21,3 23,0 16,7 16 9 23 13 NW 70 0 0,0
13.08.2018 18:00:00 19,0 12,9 16,7 23,6 23,4 16,8 15 8 35 19 NNW 70 0 0,7
13.08.2018 17:00:00 22,7 10,1 20,6 27,4 23,2 16,8 13 7 34 18 NW 58 6 0,3
13.08.2018 16:00:00 27,2 8,4 31,5 33,9 22,4 16,8 23 12 42 23 SSW 60 38 0,0
13.08.2018 15:00:00 26,6 8,5 31,0 34,3 21,4 16,8 16 9 40 21 SSW 21 59 0,0
13.08.2018 14:00:00 25,6 9,1 31,2 33,0 20,3 16,8 24 13 38 20 S 22 60 0,0
13.08.2018 13:00:00 23,9 8,7 28,7 31,7 19,2 16,8 21 11 35 19 S 16 60 0,0
13.08.2018 12:00:00 23,2 8,3 27,3 29,6 18,1 16,8 19 11 30 16 SSE 19 60 0,0
13.08.2018 11:00:00 22,1 7,2 25,2 26,7 17,2 16,8 19 10 29 16 SSE 28 60 0,0
13.08.2018 10:00:00 21,0 8,2 24,3 23,1 16,6 16,8 25 13 31 17 SSW 19 60 0,0
13.08.2018 09:00:00 20,3 6,4 22,1 19,6 16,4 16,8 18 10 26 14 S 17 60 0,0
13.08.2018 08:00:00 19,6 6,4 19,8 16,0 16,4 16,8 19 10 26 14 SSW 31 60 0,0
13.08.2018 07:00:00 16,1 5,0 14,4 13,0 16,7 16,9 16 9 19 11 S 50 36 0,0
13.08.2018 06:00:00 14,4 3,6 11,0 12,6 17,1 16,9 16 9 18 10 S 70 0 0,0
13.08.2018 05:00:00 14,5 3,8 10,5 13,0 17,5 16,9 15 8 20 11 S 70 0 0,0
13.08.2018 04:00:00 14,8 4,0 11,2 13,6 17,9 16,9 14 8 19 10 S 70 0 0,0
13.08.2018 03:00:00 16,2 4,3 13,7 14,1 18,3 16,9 19 10 22 12 S 70 0 0,0
13.08.2018 02:00:00 15,8 3,9 12,4 14,4 18,8 16,9 20 11 23 12 S 70 0 0,0
13.08.2018 01:00:00 15,8 3,6 12,4 15,1 19,3 16,9 17 9 21 12 SSW 70 0 0,0
13.08.2018 00:00:00 15,8 3,8 12,1 15,9 19,9 17,0 16 9 18 10 S 70 0 0,0
12.08.2018 23:00:00 15,9 4,3 12,2 16,9 20,4 17,0 13 7 18 10 S 70 0 0,0
12.08.2018 22:00:00 16,4 4,3 13,2 18,1 20,9 17,0 13 7 16 9 S 70 0 0,0
12.08.2018 21:00:00 16,9 4,2 13,7 19,8 21,4 17,0 15 8 21 11 S 70 0 0,0
12.08.2018 20:00:00 18,8 4,7 16,5 22,5 21,5 17,0 13 7 21 11 S 70 46 0,0
12.08.2018 19:00:00 20,8 4,9 22,2 25,4 21,4 17,1 15 8 25 14 S 37 60 0,0
12.08.2018 18:00:00 21,1 4,5 23,2 27,7 21,0 17,1 23 12 35 19 S 46 60 0,0
12.08.2018 17:00:00 21,2 5,3 24,4 29,4 20,3 17,1 17 9 37 20 S 20 60 0,0
12.08.2018 16:00:00 21,0 5,0 25,1 30,1 19,3 17,1 22 12 37 20 WSW 13 60 0,0
12.08.2018 15:00:00 20,4 4,9 25,1 29,1 18,4 17,1 18 10 32 18 WSW 14 57 0,0
12.08.2018 14:00:00 19,6 5,5 25,1 28,1 17,3 17,1 13 7 33 18 SSW 24 60 0,0
12.08.2018 13:00:00 18,1 4,7 23,4 26,8 16,2 17,2 19 10 34 18 SSW 13 60 0,0
12.08.2018 12:00:00 17,6 4,4 22,6 24,6 15,3 17,2 22 12 32 17 SSW 22 60 0,0
12.08.2018 11:00:00 16,6 4,1 19,8 21,6 14,5 17,2 19 11 32 17 S 17 60 0,0
12.08.2018 10:00:00 15,7 3,6 18,0 18,4 14,0 17,2 21 11 34 18 SSE 21 60 0,0
12.08.2018 09:00:00 14,5 3,2 15,4 14,9 13,7 17,2 18 10 27 15 SSE 30 60 0,0
12.08.2018 08:00:00 12,7 3,8 13,1 11,5 13,8 17,2 14 7 19 10 S 29 60 0,0
12.08.2018 07:00:00 10,5 2,9 9,3 8,8 14,1 17,3 10 6 16 9 S 34 38 0,0
12.08.2018 06:00:00 9,9 1,4 6,3 8,2 14,5 17,3 13 7 15 8 S 70 0 0,0
12.08.2018 05:00:00 9,9 1,9 5,3 8,5 14,9 17,3 8 4 13 7 S 70 0 0,0
12.08.2018 04:00:00 10,0 1,6 5,1 8,8 15,4 17,3 9 5 11 6 S 70 0 0,0
12.08.2018 03:00:00 10,5 1,7 5,6 9,5 15,9 17,3 11 6 16 9 NNW 70 0 0,0
12.08.2018 02:00:00 10,9 1,7 7,0 10,1 16,3 17,4 13 7 18 10 NNW 70 0 0,0
12.08.2018 01:00:00 11,3 2,4 8,9 10,9 16,8 17,4 15 8 19 10 NNW 70 0 0,0
12.08.2018 00:00:00 11,8 2,7 10,0 11,6 17,3 17,4 16 8 20 11 N 70 0 0,0
11.08.2018 23:00:00 12,4 2,9 10,4 12,6 17,8 17,4 16 8 21 11 NNW 70 0 0,0
11.08.2018 22:00:00 13,2 3,0 10,8 13,9 18,3 17,4 10 6 16 9 NNW 70 0 0,0
11.08.2018 21:00:00 14,3 3,0 12,4 15,2 18,7 17,5 11 6 27 14 NNW 70 4 0,0
11.08.2018 20:00:00 16,9 4,7 14,8 17,4 18,8 17,5 8 5 20 11 NW 70 45 0,0
11.08.2018 19:00:00 17,1 5,7 16,0 19,7 18,8 17,5 14 8 27 14 NW 70 34 0,0
11.08.2018 18:00:00 17,3 5,4 17,0 20,6 18,6 17,5 14 7 43 23 WNW 70 31 0,0
11.08.2018 17:00:00 18,0 4,4 18,1 21,5 18,2 17,5 15 8 39 21 WNW 70 35 0,0
11.08.2018 16:00:00 19,0 4,4 21,4 22,2 17,6 17,5 23 13 44 24 W 70 36 0,0
11.08.2018 15:00:00 19,1 4,1 20,7 23,1 17,0 17,5 29 16 47 25 WSW 25 50 0,0
11.08.2018 14:00:00 18,3 6,0 20,5 21,8 16,5 17,6 25 14 40 22 W 36 39 0,0
11.08.2018 13:00:00 15,4 9,9 15,4 18,3 16,3 17,6 16 9 34 18 WSW 34 5 1,3
11.08.2018 12:00:00 13,9 11,1 13,1 16,7 16,0 17,6 14 7 26 14 SSW 30 0 0,3
11.08.2018 11:00:00 15,7 10,4 17,3 19,6 15,4 17,6 19 11 41 22 S 57 40 0,0
11.08.2018 10:00:00 17,5 8,7 19,8 19,0 14,9 17,6 28 15 40 21 SSW 24 51 0,0
11.08.2018 09:00:00 15,1 8,0 14,4 14,3 14,8 17,6 20 11 28 15 SSW 70 3 0,0
11.08.2018 08:00:00 14,5 7,8 13,7 12,9 14,8 17,6 18 10 26 14 SSW 70 9 0,0
11.08.2018 07:00:00 13,2 6,2 12,0 10,8 15,0 17,6 16 9 20 11 SSW 70 27 0,0
11.08.2018 06:00:00 11,8 4,6 9,0 9,2 15,3 17,6 17 9 21 12 SW 70 0 0,0
11.08.2018 05:00:00 11,8 4,5 7,5 9,3 15,7 17,6 16 8 17 9 SW 70 0 0,0
11.08.2018 04:00:00 11,7 4,5 6,9 9,6 16,1 17,6 14 8 16 9 WSW 70 0 0,0
11.08.2018 03:00:00 11,5 5,1 5,4 10,0 16,5 17,7 11 6 15 8 WSW 70 0 0,0
11.08.2018 02:00:00 11,4 5,6 6,6 10,6 17,0 17,7 12 7 15 8 WSW 70 0 0,0
11.08.2018 01:00:00 10,9 8,1 7,6 11,2 17,4 17,7 12 6 15 8 SW 70 0 0,0
11.08.2018 00:00:00 10,5 8,8 8,3 11,8 17,9 17,7 13 7 21 11 S 45 0 0,0
10.08.2018 23:00:00 11,6 9,4 9,8 12,5 18,4 17,7 19 10 26 14 SSW 63 0 0,0
10.08.2018 22:00:00 10,8 8,1 9,4 13,1 18,9 17,7 16 9 22 12 S 70 0 0,0
10.08.2018 21:00:00 11,5 9,2 10,0 14,7 19,3 17,7 15 8 19 10 S 70 9 0,0
10.08.2018 20:00:00 13,2 11,1 12,3 17,0 19,4 17,7 12 7 18 10 S 14 52 0,0
10.08.2018 19:00:00 14,3 12,7 16,4 19,3 19,5 17,7 14 7 22 12 SSE 5 27 0,0
10.08.2018 18:00:00 14,0 12,1 14,6 18,9 19,5 17,7 13 7 20 11 S 22 0 0,0
10.08.2018 17:00:00 14,0 12,3 14,0 18,9 19,6 17,7 16 8 21 11 S 30 0 0,0
10.08.2018 16:00:00 14,6 12,1 14,9 19,2 19,6 17,7 9 5 13 7 S 43 0 0,9
10.08.2018 15:00:00 15,0 11,4 14,1 19,5 19,5 17,7 5 3 18 10 W 18 0 0,3
10.08.2018 14:00:00 16,2 10,3 17,8 20,8 19,3 17,7 10 5 22 12 W 69 1 0,0
10.08.2018 13:00:00 15,6 10,6 17,2 19,7 19,2 17,7 14 7 28 15 W 70 4 0,0
10.08.2018 12:00:00 14,9 10,5 16,0 18,5 19,2 17,7 15 8 23 13 W 65 0 0,0
10.08.2018 11:00:00 14,1 11,6 14,5 17,3 19,4 17,7 12 7 23 12 WSW 70 0 0,1
10.08.2018 10:00:00 13,5 11,2 13,0 16,5 19,6 17,7 12 7 29 16 W 70 0 0,1
10.08.2018 09:00:00 14,7 9,7 14,0 16,7 19,8 17,7 20 11 34 18 W 42 0 0,0
10.08.2018 08:00:00 15,3 10,5 14,8 16,8 20,1 17,7 12 7 31 17 W 70 0 0,1
10.08.2018 07:00:00 14,8 11,2 13,2 16,7 20,5 17,7 14 7 34 18 W 27 0 0,2
10.08.2018 06:00:00 16,1 10,7 15,5 17,1 20,8 17,7 17 9 35 19 W 70 0 0,0
10.08.2018 05:00:00 16,4 10,8 15,5 17,1 21,2 17,7 19 11 43 23 W 70 0 0,0
10.08.2018 04:00:00 16,8 11,1 15,9 17,5 21,7 17,7 18 10 38 21 W 70 0 0,0
10.08.2018 03:00:00 17,6 10,5 16,5 18,1 22,2 17,7 26 14 48 26 W 70 0 0,0
10.08.2018 02:00:00 18,2 10,6 17,0 18,8 22,7 17,7 28 15 46 25 W 70 0 0,0
10.08.2018 01:00:00 19,1 11,3 17,7 19,5 23,2 17,7 27 14 42 23 W 67 0 0,0
10.08.2018 00:00:00 20,3 12,9 18,9 20,4 23,7 17,7 18 10 28 15 W 42 0 0,0
09.08.2018 23:00:00 21,6 12,8 19,9 21,5 24,2 17,7 15 8 32 17 WNW 39 0 0,0
09.08.2018 22:00:00 22,7 13,6 20,2 22,9 24,7 17,7 9 5 34 18 SSE 39 0 0,0
09.08.2018 21:00:00 23,9 11,0 21,4 24,1 25,1 17,7 19 10 23 12 SSW 50 12 0,0
09.08.2018 20:00:00 26,4 11,9 24,6 26,6 25,3 17,7 14 8 25 13 SSE 38 57 0,0
09.08.2018 19:00:00 27,7 12,4 28,5 29,2 25,3 17,7 17 9 32 17 S 44 59 0,0
09.08.2018 18:00:00 27,4 13,4 27,7 30,6 24,9 17,7 19 11 39 21 SE 33 41 0,0
09.08.2018 17:00:00 27,7 13,1 30,9 32,5 24,3 17,7 16 8 34 19 SSE 27 55 0,0
09.08.2018 16:00:00 27,4 13,8 31,1 33,1 23,5 17,7 21 12 36 19 SSE 19 60 0,0
09.08.2018 15:00:00 27,4 12,6 31,9 32,5 22,6 17,7 16 9 33 18 S 18 60 0,0
09.08.2018 14:00:00 26,6 12,6 28,8 30,3 21,8 17,7 18 10 30 16 SE 26 60 0,0
09.08.2018 13:00:00 26,2 13,9 29,8 28,5 21,1 17,7 18 10 31 17 SE 30 60 0,0
09.08.2018 12:00:00 26,1 11,4 28,8 27,2 20,4 17,7 18 10 26 14 ESE 27 60 0,0
09.08.2018 11:00:00 25,7 11,8 28,1 26,0 19,7 17,7 16 9 24 13 ESE 37 60 0,0
09.08.2018 10:00:00 25,1 13,4 26,7 24,2 19,2 17,7 12 7 20 11 SSE 36 59 0,0
09.08.2018 09:00:00 24,0 13,6 24,3 21,7 18,9 17,7 11 6 15 8 SE 43 60 0,0
09.08.2018 08:00:00 22,3 13,8 21,9 18,7 18,9 17,7 5 3 8 5 ESE 49 53 0,0
09.08.2018 07:00:00 19,8 13,5 17,9 16,1 19,1 17,7 9 5 13 7 NNE 42 23 0,0
09.08.2018 06:00:00 19,2 12,5 14,5 15,6 19,4 17,7 9 5 16 9 NW 42 0 0,0
09.08.2018 05:00:00 19,5 12,4 14,9 15,9 19,7 17,7 13 7 17 9 WNW 40 0 0,0
09.08.2018 04:00:00 20,2 12,3 16,6 16,1 20,1 17,7 14 7 16 8 NW 47 0 0,0
09.08.2018 03:00:00 20,7 12,1 15,4 16,5 20,4 17,7 10 6 14 8 W 50 0 0,0
09.08.2018 02:00:00 20,9 12,2 15,8 16,9 20,8 17,7 12 6 14 7 W 52 0 0,0
09.08.2018 01:00:00 20,8 11,8 16,4 17,2 21,2 17,7 12 7 14 7 W 52 0 0,0
09.08.2018 00:00:00 20,8 11,6 15,9 17,7 21,7 17,7 11 6 16 9 WNW 60 0 0,0
08.08.2018 23:00:00 20,8 11,8 17,2 18,3 22,1 17,7 14 8 18 10 WNW 59 0 0,0
08.08.2018 22:00:00 20,6 13,0 16,4 19,1 22,6 17,7 14 8 17 9 WNW 40 0 0,0
08.08.2018 21:00:00 20,6 13,1 17,0 20,3 23,0 17,7 14 7 17 9 WNW 44 0 0,0
08.08.2018 20:00:00 20,9 13,8 18,5 21,7 23,3 17,7 12 7 18 10 WNW 38 0 0,0
08.08.2018 19:00:00 20,2 14,1 18,3 22,4 23,7 17,7 16 9 26 14 NW 35 15 0,3

tt = Température de l'air
td = dewpoint
tt 5cm = Température de l'air 5cm
tt -5cm = Température de l'air -5cm
tt -20cm = Température de l'air -20cm
tt -100cm = Température de l'air -100cm
ff = Vitesse du vent
fx = gusts
dd = Direction du vent
vv = visibility
sd = Ensoleillement
rr = Quantités de précipitations

stations d'obs. à proximité